sensor_id;sensor_type;location;lat;lon;timestamp;P1;durP1;ratioP1;P2;durP2;ratioP2
38479;SDS011;53952;51.980;5.934;2022-07-10T00:01:15;0.57;;;0.10;;
38479;SDS011;53952;51.980;5.934;2022-07-10T00:03:41;0.95;;;0.20;;
38479;SDS011;53952;51.980;5.934;2022-07-10T00:06:09;0.40;;;0.00;;
38479;SDS011;53952;51.980;5.934;2022-07-10T00:08:35;0.20;;;0.00;;
38479;SDS011;53952;51.980;5.934;2022-07-10T00:11:00;0.90;;;0.00;;
38479;SDS011;53952;51.980;5.934;2022-07-10T00:13:26;0.20;;;0.00;;
38479;SDS011;53952;51.980;5.934;2022-07-10T00:15:52;0.20;;;0.00;;
38479;SDS011;53952;51.980;5.934;2022-07-10T00:18:17;0.63;;;0.00;;
38479;SDS011;53952;51.980;5.934;2022-07-10T00:20:43;0.20;;;0.00;;
38479;SDS011;53952;51.980;5.934;2022-07-10T00:23:08;0.28;;;0.00;;
38479;SDS011;53952;51.980;5.934;2022-07-10T00:25:34;0.75;;;0.00;;
38479;SDS011;53952;51.980;5.934;2022-07-10T00:28:00;0.10;;;0.00;;
38479;SDS011;53952;51.980;5.934;2022-07-10T00:30:26;1.05;;;0.00;;
38479;SDS011;53952;51.980;5.934;2022-07-10T00:32:51;0.50;;;0.05;;
38479;SDS011;53952;51.980;5.934;2022-07-10T00:35:17;0.30;;;0.00;;
38479;SDS011;53952;51.980;5.934;2022-07-10T00:37:43;0.28;;;0.00;;
38479;SDS011;53952;51.980;5.934;2022-07-10T00:40:08;0.47;;;0.10;;
38479;SDS011;53952;51.980;5.934;2022-07-10T00:42:34;0.10;;;0.00;;
38479;SDS011;53952;51.980;5.934;2022-07-10T00:45:00;0.10;;;0.00;;
38479;SDS011;53952;51.980;5.934;2022-07-10T00:47:26;0.30;;;0.13;;
38479;SDS011;53952;51.980;5.934;2022-07-10T00:49:51;1.05;;;0.00;;
38479;SDS011;53952;51.980;5.934;2022-07-10T00:52:17;0.20;;;0.00;;
38479;SDS011;53952;51.980;5.934;2022-07-10T00:54:47;0.45;;;0.00;;
38479;SDS011;53952;51.980;5.934;2022-07-10T00:57:15;0.00;;;0.00;;
38479;SDS011;53952;51.980;5.934;2022-07-10T00:59:42;0.98;;;0.17;;
38479;SDS011;53952;51.980;5.934;2022-07-10T01:02:09;0.38;;;0.00;;
38479;SDS011;53952;51.980;5.934;2022-07-10T01:04:36;0.93;;;0.00;;
38479;SDS011;53952;51.980;5.934;2022-07-10T01:07:02;0.10;;;0.00;;
38479;SDS011;53952;51.980;5.934;2022-07-10T01:09:28;1.38;;;0.00;;
38479;SDS011;53952;51.980;5.934;2022-07-10T01:11:55;0.43;;;0.00;;
38479;SDS011;53952;51.980;5.934;2022-07-10T01:14:21;0.10;;;0.00;;
38479;SDS011;53952;51.980;5.934;2022-07-10T01:16:47;0.40;;;0.00;;
38479;SDS011;53952;51.980;5.934;2022-07-10T01:19:14;0.25;;;0.00;;
38479;SDS011;53952;51.980;5.934;2022-07-10T01:21:39;0.10;;;0.00;;
38479;SDS011;53952;51.980;5.934;2022-07-10T01:24:09;1.38;;;0.00;;
38479;SDS011;53952;51.980;5.934;2022-07-10T01:26:35;0.47;;;0.00;;
38479;SDS011;53952;51.980;5.934;2022-07-10T01:29:03;0.38;;;0.00;;
38479;SDS011;53952;51.980;5.934;2022-07-10T01:31:30;0.17;;;0.00;;
38479;SDS011;53952;51.980;5.934;2022-07-10T01:33:56;0.63;;;0.00;;
38479;SDS011;53952;51.980;5.934;2022-07-10T01:36:22;0.63;;;0.03;;
38479;SDS011;53952;51.980;5.934;2022-07-10T01:38:50;0.20;;;0.00;;
38479;SDS011;53952;51.980;5.934;2022-07-10T01:41:16;0.30;;;0.00;;
38479;SDS011;53952;51.980;5.934;2022-07-10T01:43:42;0.10;;;0.00;;
38479;SDS011;53952;51.980;5.934;2022-07-10T01:46:10;0.08;;;0.00;;
38479;SDS011;53952;51.980;5.934;2022-07-10T01:48:37;1.10;;;0.60;;
38479;SDS011;53952;51.980;5.934;2022-07-10T01:51:03;0.38;;;0.00;;
38479;SDS011;53952;51.980;5.934;2022-07-10T01:53:30;0.35;;;0.00;;
38479;SDS011;53952;51.980;5.934;2022-07-10T01:55:56;0.10;;;0.00;;
38479;SDS011;53952;51.980;5.934;2022-07-10T01:58:22;0.25;;;0.00;;
38479;SDS011;53952;51.980;5.934;2022-07-10T02:00:47;0.10;;;0.00;;
38479;SDS011;53952;51.980;5.934;2022-07-10T02:03:13;0.47;;;0.00;;
38479;SDS011;53952;51.980;5.934;2022-07-10T02:05:58;0.15;;;0.00;;
38479;SDS011;53952;51.980;5.934;2022-07-10T02:08:23;0.10;;;0.00;;
38479;SDS011;53952;51.980;5.934;2022-07-10T02:10:49;0.20;;;0.00;;
38479;SDS011;53952;51.980;5.934;2022-07-10T02:13:15;0.40;;;0.00;;
38479;SDS011;53952;51.980;5.934;2022-07-10T02:15:42;1.45;;;0.00;;
38479;SDS011;53952;51.980;5.934;2022-07-10T02:18:08;0.25;;;0.00;;
38479;SDS011;53952;51.980;5.934;2022-07-10T02:20:34;0.10;;;0.00;;
38479;SDS011;53952;51.980;5.934;2022-07-10T02:23:01;0.20;;;0.00;;
38479;SDS011;53952;51.980;5.934;2022-07-10T02:25:27;0.10;;;0.00;;
38479;SDS011;53952;51.980;5.934;2022-07-10T02:27:53;0.63;;;0.00;;
38479;SDS011;53952;51.980;5.934;2022-07-10T02:30:19;0.60;;;0.05;;
38479;SDS011;53952;51.980;5.934;2022-07-10T02:32:44;0.00;;;0.00;;
38479;SDS011;53952;51.980;5.934;2022-07-10T02:35:10;0.60;;;0.05;;
38479;SDS011;53952;51.980;5.934;2022-07-10T02:37:36;0.43;;;0.00;;
38479;SDS011;53952;51.980;5.934;2022-07-10T02:40:02;0.32;;;0.00;;
38479;SDS011;53952;51.980;5.934;2022-07-10T02:42:27;0.10;;;0.00;;
38479;SDS011;53952;51.980;5.934;2022-07-10T02:44:53;0.40;;;0.30;;
38479;SDS011;53952;51.980;5.934;2022-07-10T02:47:19;0.15;;;0.00;;
38479;SDS011;53952;51.980;5.934;2022-07-10T02:49:44;0.10;;;0.00;;
38479;SDS011;53952;51.980;5.934;2022-07-10T02:52:10;0.17;;;0.00;;
38479;SDS011;53952;51.980;5.934;2022-07-10T02:54:36;0.10;;;0.00;;
38479;SDS011;53952;51.980;5.934;2022-07-10T02:57:02;0.00;;;0.00;;
38479;SDS011;53952;51.980;5.934;2022-07-10T02:59:28;0.25;;;0.00;;
38479;SDS011;53952;51.980;5.934;2022-07-10T03:01:53;0.30;;;0.00;;
38479;SDS011;53952;51.980;5.934;2022-07-10T03:04:19;0.00;;;0.00;;
38479;SDS011;53952;51.980;5.934;2022-07-10T03:06:45;0.30;;;0.00;;
38479;SDS011;53952;51.980;5.934;2022-07-10T03:09:11;0.10;;;0.00;;
38479;SDS011;53952;51.980;5.934;2022-07-10T03:11:36;0.35;;;0.00;;
38479;SDS011;53952;51.980;5.934;2022-07-10T03:14:02;0.00;;;0.00;;
38479;SDS011;53952;51.980;5.934;2022-07-10T03:16:28;0.20;;;0.00;;
38479;SDS011;53952;51.980;5.934;2022-07-10T03:18:54;1.48;;;0.73;;
38479;SDS011;53952;51.980;5.934;2022-07-10T03:21:20;0.50;;;0.00;;
38479;SDS011;53952;51.980;5.934;2022-07-10T03:23:45;2.38;;;0.75;;
38479;SDS011;53952;51.980;5.934;2022-07-10T03:26:11;0.30;;;0.00;;
38479;SDS011;53952;51.980;5.934;2022-07-10T03:28:36;0.25;;;0.00;;
38479;SDS011;53952;51.980;5.934;2022-07-10T03:31:02;0.00;;;0.00;;
38479;SDS011;53952;51.980;5.934;2022-07-10T03:33:28;0.20;;;0.00;;
38479;SDS011;53952;51.980;5.934;2022-07-10T03:35:54;0.40;;;0.00;;
38479;SDS011;53952;51.980;5.934;2022-07-10T03:38:19;0.10;;;0.00;;
38479;SDS011;53952;51.980;5.934;2022-07-10T03:40:45;1.55;;;0.15;;
38479;SDS011;53952;51.980;5.934;2022-07-10T03:43:13;0.20;;;0.10;;
38479;SDS011;53952;51.980;5.934;2022-07-10T03:45:39;0.38;;;0.00;;
38479;SDS011;53952;51.980;5.934;2022-07-10T03:48:05;0.50;;;0.10;;
38479;SDS011;53952;51.980;5.934;2022-07-10T03:50:31;0.30;;;0.00;;
38479;SDS011;53952;51.980;5.934;2022-07-10T03:52:57;0.52;;;0.30;;
38479;SDS011;53952;51.980;5.934;2022-07-10T03:55:23;0.35;;;0.00;;
38479;SDS011;53952;51.980;5.934;2022-07-10T03:57:49;0.20;;;0.00;;
38479;SDS011;53952;51.980;5.934;2022-07-10T04:00:27;0.20;;;0.00;;
38479;SDS011;53952;51.980;5.934;2022-07-10T04:03:01;0.20;;;0.00;;
38479;SDS011;53952;51.980;5.934;2022-07-10T04:05:28;0.20;;;0.00;;
38479;SDS011;53952;51.980;5.934;2022-07-10T04:07:54;0.80;;;0.00;;
38479;SDS011;53952;51.980;5.934;2022-07-10T04:10:24;0.30;;;0.00;;
38479;SDS011;53952;51.980;5.934;2022-07-10T04:12:50;0.30;;;0.00;;
38479;SDS011;53952;51.980;5.934;2022-07-10T04:15:16;0.00;;;0.00;;
38479;SDS011;53952;51.980;5.934;2022-07-10T04:17:42;0.50;;;0.10;;
38479;SDS011;53952;51.980;5.934;2022-07-10T04:20:08;0.10;;;0.00;;
38479;SDS011;53952;51.980;5.934;2022-07-10T04:22:34;0.25;;;0.00;;
38479;SDS011;53952;51.980;5.934;2022-07-10T04:25:00;0.00;;;0.00;;
38479;SDS011;53952;51.980;5.934;2022-07-10T04:27:26;1.15;;;0.22;;
38479;SDS011;53952;51.980;5.934;2022-07-10T04:29:52;0.52;;;0.20;;
38479;SDS011;53952;51.980;5.934;2022-07-10T04:32:18;0.85;;;0.00;;
38479;SDS011;53952;51.980;5.934;2022-07-10T04:34:44;0.30;;;0.10;;
38479;SDS011;53952;51.980;5.934;2022-07-10T04:37:09;0.22;;;0.00;;
38479;SDS011;53952;51.980;5.934;2022-07-10T04:39:35;0.63;;;0.10;;
38479;SDS011;53952;51.980;5.934;2022-07-10T04:42:02;0.05;;;0.00;;
38479;SDS011;53952;51.980;5.934;2022-07-10T04:44:29;0.25;;;0.00;;
38479;SDS011;53952;51.980;5.934;2022-07-10T04:46:55;0.80;;;0.00;;
38479;SDS011;53952;51.980;5.934;2022-07-10T04:49:20;0.08;;;0.00;;
38479;SDS011;53952;51.980;5.934;2022-07-10T04:51:46;0.30;;;0.00;;
38479;SDS011;53952;51.980;5.934;2022-07-10T04:54:12;0.98;;;0.25;;
38479;SDS011;53952;51.980;5.934;2022-07-10T04:56:38;0.75;;;0.10;;
38479;SDS011;53952;51.980;5.934;2022-07-10T04:59:03;0.13;;;0.00;;
38479;SDS011;53952;51.980;5.934;2022-07-10T05:01:29;0.20;;;0.08;;
38479;SDS011;53952;51.980;5.934;2022-07-10T05:03:55;0.40;;;0.00;;
38479;SDS011;53952;51.980;5.934;2022-07-10T05:06:20;0.20;;;0.00;;
38479;SDS011;53952;51.980;5.934;2022-07-10T05:08:46;0.00;;;0.00;;
38479;SDS011;53952;51.980;5.934;2022-07-10T05:11:12;0.50;;;0.10;;
38479;SDS011;53952;51.980;5.934;2022-07-10T05:13:38;0.75;;;0.00;;
38479;SDS011;53952;51.980;5.934;2022-07-10T05:16:04;0.52;;;0.00;;
38479;SDS011;53952;51.980;5.934;2022-07-10T05:18:30;0.22;;;0.00;;
38479;SDS011;53952;51.980;5.934;2022-07-10T05:20:55;0.65;;;0.00;;
38479;SDS011;53952;51.980;5.934;2022-07-10T05:23:21;0.95;;;0.00;;
38479;SDS011;53952;51.980;5.934;2022-07-10T05:25:47;1.02;;;0.00;;
38479;SDS011;53952;51.980;5.934;2022-07-10T05:28:13;0.57;;;0.03;;
38479;SDS011;53952;51.980;5.934;2022-07-10T05:30:39;0.17;;;0.00;;
38479;SDS011;53952;51.980;5.934;2022-07-10T05:33:06;0.30;;;0.00;;
38479;SDS011;53952;51.980;5.934;2022-07-10T05:35:31;0.82;;;0.00;;
38479;SDS011;53952;51.980;5.934;2022-07-10T05:37:57;0.45;;;0.00;;
38479;SDS011;53952;51.980;5.934;2022-07-10T05:40:23;0.20;;;0.03;;
38479;SDS011;53952;51.980;5.934;2022-07-10T05:42:49;0.10;;;0.00;;
38479;SDS011;53952;51.980;5.934;2022-07-10T05:45:14;1.00;;;0.10;;
38479;SDS011;53952;51.980;5.934;2022-07-10T05:47:40;0.20;;;0.00;;
38479;SDS011;53952;51.980;5.934;2022-07-10T05:50:06;0.20;;;0.00;;
38479;SDS011;53952;51.980;5.934;2022-07-10T05:52:31;0.57;;;0.00;;
38479;SDS011;53952;51.980;5.934;2022-07-10T05:54:58;0.22;;;0.00;;
38479;SDS011;53952;51.980;5.934;2022-07-10T05:57:24;0.55;;;0.00;;
38479;SDS011;53952;51.980;5.934;2022-07-10T05:59:50;0.10;;;0.00;;
38479;SDS011;53952;51.980;5.934;2022-07-10T06:02:16;0.20;;;0.00;;
38479;SDS011;53952;51.980;5.934;2022-07-10T06:04:42;0.30;;;0.10;;
38479;SDS011;53952;51.980;5.934;2022-07-10T06:07:07;0.30;;;0.00;;
38479;SDS011;53952;51.980;5.934;2022-07-10T06:09:33;0.47;;;0.00;;
38479;SDS011;53952;51.980;5.934;2022-07-10T06:11:59;0.32;;;0.00;;
38479;SDS011;53952;51.980;5.934;2022-07-10T06:14:25;0.43;;;0.10;;
38479;SDS011;53952;51.980;5.934;2022-07-10T06:16:51;1.10;;;0.10;;
38479;SDS011;53952;51.980;5.934;2022-07-10T06:19:17;0.30;;;0.00;;
38479;SDS011;53952;51.980;5.934;2022-07-10T06:21:43;1.15;;;0.10;;
38479;SDS011;53952;51.980;5.934;2022-07-10T06:24:09;0.00;;;0.00;;
38479;SDS011;53952;51.980;5.934;2022-07-10T06:26:35;1.50;;;0.10;;
38479;SDS011;53952;51.980;5.934;2022-07-10T06:29:00;0.47;;;0.10;;
38479;SDS011;53952;51.980;5.934;2022-07-10T06:31:26;0.60;;;0.10;;
38479;SDS011;53952;51.980;5.934;2022-07-10T06:33:52;0.95;;;0.10;;
38479;SDS011;53952;51.980;5.934;2022-07-10T06:36:17;0.35;;;0.10;;
38479;SDS011;53952;51.980;5.934;2022-07-10T06:38:43;1.27;;;0.30;;
38479;SDS011;53952;51.980;5.934;2022-07-10T06:41:09;1.52;;;0.10;;
38479;SDS011;53952;51.980;5.934;2022-07-10T06:43:35;1.63;;;0.32;;
38479;SDS011;53952;51.980;5.934;2022-07-10T06:46:01;1.52;;;0.32;;
38479;SDS011;53952;51.980;5.934;2022-07-10T06:48:26;1.42;;;0.10;;
38479;SDS011;53952;51.980;5.934;2022-07-10T06:50:53;1.33;;;0.20;;
38479;SDS011;53952;51.980;5.934;2022-07-10T06:53:19;1.20;;;0.10;;
38479;SDS011;53952;51.980;5.934;2022-07-10T06:55:49;2.38;;;0.45;;
38479;SDS011;53952;51.980;5.934;2022-07-10T06:58:16;0.65;;;0.10;;
38479;SDS011;53952;51.980;5.934;2022-07-10T07:00:41;1.42;;;0.22;;
38479;SDS011;53952;51.980;5.934;2022-07-10T07:03:07;2.63;;;0.13;;
38479;SDS011;53952;51.980;5.934;2022-07-10T07:05:33;1.05;;;0.10;;
38479;SDS011;53952;51.980;5.934;2022-07-10T07:07:59;1.90;;;0.13;;
38479;SDS011;53952;51.980;5.934;2022-07-10T07:10:24;1.42;;;0.25;;
38479;SDS011;53952;51.980;5.934;2022-07-10T07:12:50;1.48;;;0.47;;
38479;SDS011;53952;51.980;5.934;2022-07-10T07:15:15;1.23;;;0.15;;
38479;SDS011;53952;51.980;5.934;2022-07-10T07:17:42;3.28;;;0.40;;
38479;SDS011;53952;51.980;5.934;2022-07-10T07:20:32;1.90;;;0.35;;
38479;SDS011;53952;51.980;5.934;2022-07-10T07:23:17;2.28;;;0.15;;
38479;SDS011;53952;51.980;5.934;2022-07-10T07:25:42;1.23;;;0.20;;
38479;SDS011;53952;51.980;5.934;2022-07-10T07:28:11;1.48;;;0.20;;
38479;SDS011;53952;51.980;5.934;2022-07-10T07:30:40;1.40;;;0.20;;
38479;SDS011;53952;51.980;5.934;2022-07-10T07:33:06;1.23;;;0.20;;
38479;SDS011;53952;51.980;5.934;2022-07-10T07:35:31;1.08;;;0.20;;
38479;SDS011;53952;51.980;5.934;2022-07-10T07:37:57;1.55;;;0.75;;
38479;SDS011;53952;51.980;5.934;2022-07-10T07:40:23;1.33;;;0.20;;
38479;SDS011;53952;51.980;5.934;2022-07-10T07:42:49;0.77;;;0.10;;
38479;SDS011;53952;51.980;5.934;2022-07-10T07:45:16;0.70;;;0.10;;
38479;SDS011;53952;51.980;5.934;2022-07-10T07:47:51;0.65;;;0.10;;
38479;SDS011;53952;51.980;5.934;2022-07-10T07:50:22;0.43;;;0.10;;
38479;SDS011;53952;51.980;5.934;2022-07-10T07:52:53;1.02;;;0.13;;
38479;SDS011;53952;51.980;5.934;2022-07-10T07:55:20;3.42;;;1.20;;
38479;SDS011;53952;51.980;5.934;2022-07-10T07:57:46;2.03;;;0.20;;
38479;SDS011;53952;51.980;5.934;2022-07-10T08:00:13;1.75;;;0.40;;
38479;SDS011;53952;51.980;5.934;2022-07-10T08:02:40;0.80;;;0.20;;
38479;SDS011;53952;51.980;5.934;2022-07-10T08:05:06;0.95;;;0.10;;
38479;SDS011;53952;51.980;5.934;2022-07-10T08:07:33;1.60;;;0.20;;
38479;SDS011;53952;51.980;5.934;2022-07-10T08:10:03;0.70;;;0.17;;
38479;SDS011;53952;51.980;5.934;2022-07-10T08:12:29;1.45;;;0.30;;
38479;SDS011;53952;51.980;5.934;2022-07-10T08:14:55;0.40;;;0.10;;
38479;SDS011;53952;51.980;5.934;2022-07-10T08:17:21;0.80;;;0.13;;
38479;SDS011;53952;51.980;5.934;2022-07-10T08:19:47;1.70;;;0.10;;
38479;SDS011;53952;51.980;5.934;2022-07-10T08:22:13;1.08;;;0.10;;
38479;SDS011;53952;51.980;5.934;2022-07-10T08:24:38;2.13;;;0.10;;
38479;SDS011;53952;51.980;5.934;2022-07-10T08:27:04;2.70;;;0.65;;
38479;SDS011;53952;51.980;5.934;2022-07-10T08:29:31;1.40;;;0.13;;
38479;SDS011;53952;51.980;5.934;2022-07-10T08:31:57;1.02;;;0.30;;
38479;SDS011;53952;51.980;5.934;2022-07-10T08:34:22;1.40;;;0.20;;
38479;SDS011;53952;51.980;5.934;2022-07-10T08:36:48;1.48;;;0.20;;
38479;SDS011;53952;51.980;5.934;2022-07-10T08:39:14;1.55;;;0.20;;
38479;SDS011;53952;51.980;5.934;2022-07-10T08:41:41;2.47;;;0.10;;
38479;SDS011;53952;51.980;5.934;2022-07-10T08:44:10;0.75;;;0.10;;
38479;SDS011;53952;51.980;5.934;2022-07-10T08:46:36;0.90;;;0.28;;
38479;SDS011;53952;51.980;5.934;2022-07-10T08:49:03;1.75;;;0.10;;
38479;SDS011;53952;51.980;5.934;2022-07-10T08:51:35;0.93;;;0.10;;
38479;SDS011;53952;51.980;5.934;2022-07-10T08:54:04;2.10;;;0.22;;
38479;SDS011;53952;51.980;5.934;2022-07-10T08:56:33;1.30;;;0.20;;
38479;SDS011;53952;51.980;5.934;2022-07-10T08:59:02;1.17;;;0.10;;
38479;SDS011;53952;51.980;5.934;2022-07-10T09:01:29;0.57;;;0.20;;
38479;SDS011;53952;51.980;5.934;2022-07-10T09:03:55;4.07;;;0.43;;
38479;SDS011;53952;51.980;5.934;2022-07-10T09:06:21;0.88;;;0.10;;
38479;SDS011;53952;51.980;5.934;2022-07-10T09:09:03;2.67;;;0.10;;
38479;SDS011;53952;51.980;5.934;2022-07-10T09:11:30;0.55;;;0.10;;
38479;SDS011;53952;51.980;5.934;2022-07-10T09:14:01;0.68;;;0.10;;
38479;SDS011;53952;51.980;5.934;2022-07-10T09:19:14;1.27;;;0.47;;
38479;SDS011;53952;51.980;5.934;2022-07-10T09:22:09;3.92;;;1.50;;
38479;SDS011;53952;51.980;5.934;2022-07-10T09:24:35;14.05;;;2.35;;
38479;SDS011;53952;51.980;5.934;2022-07-10T09:27:01;5.38;;;2.28;;
38479;SDS011;53952;51.980;5.934;2022-07-10T09:29:28;4.60;;;2.13;;
38479;SDS011;53952;51.980;5.934;2022-07-10T09:31:56;3.58;;;2.00;;
38479;SDS011;53952;51.980;5.934;2022-07-10T09:34:38;5.22;;;3.78;;
38479;SDS011;53952;51.980;5.934;2022-07-10T09:37:18;4.93;;;3.78;;
38479;SDS011;53952;51.980;5.934;2022-07-10T09:39:50;5.97;;;4.22;;
38479;SDS011;53952;51.980;5.934;2022-07-10T09:42:32;6.90;;;5.75;;
38479;SDS011;53952;51.980;5.934;2022-07-10T09:47:37;10.48;;;4.97;;
38479;SDS011;53952;51.980;5.934;2022-07-10T09:52:51;6.55;;;5.00;;
38479;SDS011;53952;51.980;5.934;2022-07-10T09:55:19;8.10;;;6.75;;
38479;SDS011;53952;51.980;5.934;2022-07-10T09:57:47;7.78;;;6.05;;
38479;SDS011;53952;51.980;5.934;2022-07-10T10:00:17;7.43;;;6.63;;
38479;SDS011;53952;51.980;5.934;2022-07-10T10:02:43;8.50;;;6.82;;
38479;SDS011;53952;51.980;5.934;2022-07-10T10:05:10;9.25;;;7.82;;
38479;SDS011;53952;51.980;5.934;2022-07-10T10:07:38;14.43;;;10.10;;
38479;SDS011;53952;51.980;5.934;2022-07-10T10:10:04;8.30;;;6.82;;
38479;SDS011;53952;51.980;5.934;2022-07-10T10:12:47;11.80;;;9.52;;
38479;SDS011;53952;51.980;5.934;2022-07-10T10:15:17;12.57;;;9.57;;
38479;SDS011;53952;51.980;5.934;2022-07-10T10:17:43;11.13;;;10.02;;
38479;SDS011;53952;51.980;5.934;2022-07-10T10:20:11;12.00;;;10.73;;
38479;SDS011;53952;51.980;5.934;2022-07-10T10:22:56;12.85;;;11.50;;
38479;SDS011;53952;51.980;5.934;2022-07-10T10:25:25;15.65;;;14.13;;
38479;SDS011;53952;51.980;5.934;2022-07-10T10:27:53;14.70;;;12.30;;
38479;SDS011;53952;51.980;5.934;2022-07-10T10:30:20;13.88;;;12.10;;
38479;SDS011;53952;51.980;5.934;2022-07-10T10:32:46;12.20;;;10.90;;
38479;SDS011;53952;51.980;5.934;2022-07-10T10:35:22;12.63;;;9.50;;
38479;SDS011;53952;51.980;5.934;2022-07-10T10:38:13;12.55;;;9.65;;
38479;SDS011;53952;51.980;5.934;2022-07-10T10:40:40;11.35;;;10.23;;
38479;SDS011;53952;51.980;5.934;2022-07-10T10:45:45;12.52;;;9.25;;
38479;SDS011;53952;51.980;5.934;2022-07-10T10:48:15;10.55;;;9.15;;
38479;SDS011;53952;51.980;5.934;2022-07-10T10:50:46;16.83;;;11.93;;
38479;SDS011;53952;51.980;5.934;2022-07-10T10:53:12;12.80;;;11.45;;
38479;SDS011;53952;51.980;5.934;2022-07-10T10:55:40;13.82;;;12.43;;
38479;SDS011;53952;51.980;5.934;2022-07-10T10:58:16;14.70;;;13.18;;
38479;SDS011;53952;51.980;5.934;2022-07-10T11:00:43;19.30;;;15.20;;
38479;SDS011;53952;51.980;5.934;2022-07-10T11:03:16;11.85;;;10.65;;
38479;SDS011;53952;51.980;5.934;2022-07-10T11:05:44;10.70;;;9.60;;
38479;SDS011;53952;51.980;5.934;2022-07-10T11:08:11;9.98;;;8.98;;
38479;SDS011;53952;51.980;5.934;2022-07-10T11:13:05;7.10;;;6.40;;
38479;SDS011;53952;51.980;5.934;2022-07-10T11:15:40;6.47;;;5.40;;
38479;SDS011;53952;51.980;5.934;2022-07-10T11:18:17;7.28;;;4.90;;
38479;SDS011;53952;51.980;5.934;2022-07-10T11:20:45;5.13;;;4.05;;
38479;SDS011;53952;51.980;5.934;2022-07-10T11:26:23;6.10;;;3.70;;
38479;SDS011;53952;51.980;5.934;2022-07-10T11:29:00;3.97;;;3.03;;
38479;SDS011;53952;51.980;5.934;2022-07-10T11:31:30;7.07;;;2.33;;
38479;SDS011;53952;51.980;5.934;2022-07-10T11:33:59;3.28;;;2.10;;
38479;SDS011;53952;51.980;5.934;2022-07-10T11:36:26;5.40;;;2.50;;
38479;SDS011;53952;51.980;5.934;2022-07-10T11:39:03;3.90;;;1.88;;
38479;SDS011;53952;51.980;5.934;2022-07-10T11:41:31;3.15;;;2.03;;
38479;SDS011;53952;51.980;5.934;2022-07-10T11:44:01;3.38;;;2.30;;
38479;SDS011;53952;51.980;5.934;2022-07-10T11:46:32;4.72;;;2.05;;
38479;SDS011;53952;51.980;5.934;2022-07-10T11:51:30;2.33;;;1.20;;
38479;SDS011;53952;51.980;5.934;2022-07-10T11:53:58;2.47;;;1.00;;
38479;SDS011;53952;51.980;5.934;2022-07-10T11:56:26;2.03;;;1.27;;
38479;SDS011;53952;51.980;5.934;2022-07-10T12:16:42;1.05;;;0.40;;
38479;SDS011;53952;51.980;5.934;2022-07-10T12:19:10;0.50;;;0.30;;
38479;SDS011;53952;51.980;5.934;2022-07-10T12:21:38;1.40;;;0.45;;
38479;SDS011;53952;51.980;5.934;2022-07-10T12:24:04;6.35;;;1.75;;
38479;SDS011;53952;51.980;5.934;2022-07-10T12:26:31;1.13;;;0.63;;
38479;SDS011;53952;51.980;5.934;2022-07-10T12:29:02;0.80;;;0.43;;
38479;SDS011;53952;51.980;5.934;2022-07-10T12:31:30;0.77;;;0.30;;
38479;SDS011;53952;51.980;5.934;2022-07-10T12:34:00;0.40;;;0.20;;
38479;SDS011;53952;51.980;5.934;2022-07-10T12:39:15;2.13;;;0.20;;
38479;SDS011;53952;51.980;5.934;2022-07-10T12:44:29;0.85;;;0.20;;
38479;SDS011;53952;51.980;5.934;2022-07-10T12:47:03;0.30;;;0.10;;
38479;SDS011;53952;51.980;5.934;2022-07-10T12:49:47;1.85;;;0.43;;
38479;SDS011;53952;51.980;5.934;2022-07-10T12:52:22;1.67;;;0.20;;
38479;SDS011;53952;51.980;5.934;2022-07-10T12:55:04;0.30;;;0.10;;
38479;SDS011;53952;51.980;5.934;2022-07-10T12:57:53;0.30;;;0.10;;
38479;SDS011;53952;51.980;5.934;2022-07-10T13:00:21;1.67;;;0.55;;
38479;SDS011;53952;51.980;5.934;2022-07-10T13:02:48;2.33;;;0.10;;
38479;SDS011;53952;51.980;5.934;2022-07-10T13:05:25;0.90;;;0.10;;
38479;SDS011;53952;51.980;5.934;2022-07-10T13:07:52;0.30;;;0.17;;
38479;SDS011;53952;51.980;5.934;2022-07-10T13:10:30;1.20;;;0.10;;
38479;SDS011;53952;51.980;5.934;2022-07-10T13:12:56;1.30;;;0.25;;
38479;SDS011;53952;51.980;5.934;2022-07-10T13:15:21;2.10;;;0.10;;
38479;SDS011;53952;51.980;5.934;2022-07-10T13:17:48;0.47;;;0.10;;
38479;SDS011;53952;51.980;5.934;2022-07-10T13:20:13;0.88;;;0.10;;
38479;SDS011;53952;51.980;5.934;2022-07-10T13:22:40;0.30;;;0.10;;
38479;SDS011;53952;51.980;5.934;2022-07-10T13:25:05;7.30;;;0.10;;
38479;SDS011;53952;51.980;5.934;2022-07-10T13:27:31;2.78;;;0.10;;
38479;SDS011;53952;51.980;5.934;2022-07-10T13:29:57;0.70;;;0.63;;
38479;SDS011;53952;51.980;5.934;2022-07-10T13:32:23;0.50;;;0.10;;
38479;SDS011;53952;51.980;5.934;2022-07-10T13:34:50;0.20;;;0.10;;
38479;SDS011;53952;51.980;5.934;2022-07-10T13:37:15;0.20;;;0.05;;
38479;SDS011;53952;51.980;5.934;2022-07-10T13:39:41;0.52;;;0.00;;
38479;SDS011;53952;51.980;5.934;2022-07-10T13:42:07;0.40;;;0.10;;
38479;SDS011;53952;51.980;5.934;2022-07-10T13:44:32;0.47;;;0.10;;
38479;SDS011;53952;51.980;5.934;2022-07-10T13:46:58;0.10;;;0.00;;
38479;SDS011;53952;51.980;5.934;2022-07-10T13:49:23;0.25;;;0.05;;
38479;SDS011;53952;51.980;5.934;2022-07-10T13:51:50;0.40;;;0.00;;
38479;SDS011;53952;51.980;5.934;2022-07-10T13:54:16;0.63;;;0.00;;
38479;SDS011;53952;51.980;5.934;2022-07-10T13:56:42;0.55;;;0.10;;
38479;SDS011;53952;51.980;5.934;2022-07-10T13:59:08;0.20;;;0.00;;
38479;SDS011;53952;51.980;5.934;2022-07-10T14:01:34;1.13;;;0.10;;
38479;SDS011;53952;51.980;5.934;2022-07-10T14:03:59;0.10;;;0.00;;
38479;SDS011;53952;51.980;5.934;2022-07-10T14:06:25;0.10;;;0.00;;
38479;SDS011;53952;51.980;5.934;2022-07-10T14:08:51;0.68;;;0.03;;
38479;SDS011;53952;51.980;5.934;2022-07-10T14:11:17;0.20;;;0.00;;
38479;SDS011;53952;51.980;5.934;2022-07-10T14:13:43;0.52;;;0.10;;
38479;SDS011;53952;51.980;5.934;2022-07-10T14:16:08;0.57;;;0.10;;
38479;SDS011;53952;51.980;5.934;2022-07-10T14:18:34;0.30;;;0.00;;
38479;SDS011;53952;51.980;5.934;2022-07-10T14:21:02;0.90;;;0.10;;
38479;SDS011;53952;51.980;5.934;2022-07-10T14:23:30;1.05;;;0.08;;
38479;SDS011;53952;51.980;5.934;2022-07-10T14:25:57;0.60;;;0.00;;
38479;SDS011;53952;51.980;5.934;2022-07-10T14:28:23;0.40;;;0.28;;
38479;SDS011;53952;51.980;5.934;2022-07-10T14:30:48;0.98;;;0.00;;
38479;SDS011;53952;51.980;5.934;2022-07-10T14:33:15;0.22;;;0.00;;
38479;SDS011;53952;51.980;5.934;2022-07-10T14:35:41;1.85;;;0.00;;
38479;SDS011;53952;51.980;5.934;2022-07-10T14:38:07;1.77;;;0.20;;
38479;SDS011;53952;51.980;5.934;2022-07-10T14:40:32;0.30;;;0.00;;
38479;SDS011;53952;51.980;5.934;2022-07-10T14:42:59;0.20;;;0.00;;
38479;SDS011;53952;51.980;5.934;2022-07-10T14:45:24;0.20;;;0.00;;
38479;SDS011;53952;51.980;5.934;2022-07-10T14:47:51;0.25;;;0.00;;
38479;SDS011;53952;51.980;5.934;2022-07-10T14:50:16;0.85;;;0.00;;
38479;SDS011;53952;51.980;5.934;2022-07-10T14:52:43;0.10;;;0.00;;
38479;SDS011;53952;51.980;5.934;2022-07-10T14:55:09;0.28;;;0.00;;
38479;SDS011;53952;51.980;5.934;2022-07-10T14:57:35;0.03;;;0.00;;
38479;SDS011;53952;51.980;5.934;2022-07-10T15:00:00;0.22;;;0.00;;
38479;SDS011;53952;51.980;5.934;2022-07-10T15:02:26;0.10;;;0.00;;
38479;SDS011;53952;51.980;5.934;2022-07-10T15:04:51;0.00;;;0.00;;
38479;SDS011;53952;51.980;5.934;2022-07-10T15:07:17;0.10;;;0.00;;
38479;SDS011;53952;51.980;5.934;2022-07-10T15:09:46;0.30;;;0.00;;
38479;SDS011;53952;51.980;5.934;2022-07-10T15:12:12;0.30;;;0.00;;
38479;SDS011;53952;51.980;5.934;2022-07-10T15:14:38;0.20;;;0.00;;
38479;SDS011;53952;51.980;5.934;2022-07-10T15:17:04;0.00;;;0.00;;
38479;SDS011;53952;51.980;5.934;2022-07-10T15:19:29;0.00;;;0.00;;
38479;SDS011;53952;51.980;5.934;2022-07-10T15:21:55;0.20;;;0.00;;
38479;SDS011;53952;51.980;5.934;2022-07-10T15:24:21;0.10;;;0.00;;
38479;SDS011;53952;51.980;5.934;2022-07-10T15:26:47;0.63;;;0.00;;
38479;SDS011;53952;51.980;5.934;2022-07-10T15:29:13;1.02;;;0.00;;